createdAt,value
2022-10-22T00:00:41.184Z,33.40
2022-10-22T00:03:08.115Z,34.83
2022-10-22T00:05:35.758Z,31.90
2022-10-22T00:08:02.853Z,33.22
2022-10-22T00:10:29.831Z,33.53
2022-10-22T00:12:57.035Z,30.17
2022-10-22T00:15:24.502Z,37.17
2022-10-22T00:17:51.908Z,34.65
2022-10-22T00:20:18.851Z,34.58
2022-10-22T00:22:45.837Z,32.75
2022-10-22T00:25:12.751Z,34.20
2022-10-22T00:27:39.920Z,34.28
2022-10-22T00:30:09.145Z,30.20
2022-10-22T00:32:36.186Z,32.47
2022-10-22T00:35:03.908Z,37.10
2022-10-22T00:37:31.437Z,31.85
2022-10-22T00:39:58.357Z,31.27
2022-10-22T00:42:27.369Z,33.13
2022-10-22T00:45:04.576Z,33.47
2022-10-22T00:47:39.299Z,32.85
2022-10-22T00:50:13.509Z,38.10
2022-10-22T00:52:40.965Z,36.30
2022-10-22T00:55:09.116Z,32.88
2022-10-22T00:57:36.814Z,32.90
2022-10-22T01:00:06.483Z,28.42
2022-10-22T01:02:34.282Z,30.42
2022-10-22T01:05:01.240Z,33.95
2022-10-22T01:07:28.568Z,31.88
2022-10-22T01:10:22.059Z,29.30
2022-10-22T01:13:01.029Z,32.22
2022-10-22T01:15:56.857Z,34.30
2022-10-22T01:19:08.173Z,33.42
2022-10-22T01:21:46.831Z,30.48
2022-10-22T01:24:36.351Z,32.90
2022-10-22T01:27:26.395Z,28.60
2022-10-22T01:30:07.361Z,29.80
2022-10-22T01:32:45.148Z,31.58
2022-10-22T01:35:17.791Z,26.35
2022-10-22T01:37:53.491Z,28.17
2022-10-22T01:40:23.398Z,29.58
2022-10-22T01:43:02.886Z,30.50
2022-10-22T01:45:38.766Z,30.83
2022-10-22T01:48:24.452Z,31.90
2022-10-22T01:51:31.036Z,30.65
2022-10-22T01:54:34.287Z,34.00
2022-10-22T01:57:31.674Z,28.67
2022-10-22T02:00:08.932Z,29.92
2022-10-22T02:03:22.997Z,28.02
2022-10-22T02:06:01.627Z,29.67
2022-10-22T02:08:33.001Z,25.83
2022-10-22T02:11:01.336Z,27.13
2022-10-22T02:13:36.803Z,31.00
2022-10-22T02:16:08.608Z,28.50
2022-10-22T02:18:40.680Z,27.40
2022-10-22T02:23:40.604Z,29.05
2022-10-22T02:26:20.662Z,27.08
2022-10-22T02:29:07.395Z,24.48
2022-10-22T02:31:39.410Z,27.52
2022-10-22T02:34:11.752Z,28.17
2022-10-22T02:36:40.804Z,25.30
2022-10-22T02:39:09.464Z,25.95
2022-10-22T02:41:38.137Z,27.42
2022-10-22T02:44:10.389Z,30.08
2022-10-22T02:46:39.568Z,27.73
2022-10-22T02:49:06.917Z,28.55
2022-10-22T02:51:34.519Z,31.08
2022-10-22T02:54:01.950Z,33.17
2022-10-22T02:56:28.970Z,25.70
2022-10-22T02:58:56.161Z,27.13
2022-10-22T03:01:23.580Z,28.25
2022-10-22T03:03:50.691Z,31.00
2022-10-22T03:06:18.134Z,32.25
2022-10-22T03:08:45.127Z,27.35
2022-10-22T03:11:12.029Z,26.27
2022-10-22T03:13:38.899Z,24.92
2022-10-22T03:16:06.370Z,24.90
2022-10-22T03:18:33.379Z,29.58
2022-10-22T03:21:28.760Z,27.27
2022-10-22T03:23:56.005Z,27.38
2022-10-22T03:26:23.966Z,26.45
2022-10-22T03:28:51.665Z,29.63
2022-10-22T03:31:19.039Z,24.92
2022-10-22T03:33:46.153Z,28.45
2022-10-22T03:36:13.219Z,31.80
2022-10-22T03:38:41.126Z,31.23
2022-10-22T03:41:08.342Z,26.92
2022-10-22T03:43:36.831Z,26.63
2022-10-22T03:46:05.439Z,29.20
2022-10-22T03:48:32.631Z,28.85
2022-10-22T03:50:59.574Z,29.10
2022-10-22T03:53:26.481Z,27.02
2022-10-22T03:55:53.334Z,29.13
2022-10-22T03:58:20.169Z,26.83
2022-10-22T04:00:47.292Z,28.98
2022-10-22T04:03:14.405Z,28.92
2022-10-22T04:05:41.605Z,28.50
2022-10-22T04:08:08.696Z,25.88
2022-10-22T04:10:35.897Z,25.75
2022-10-22T04:13:02.810Z,25.38
2022-10-22T04:15:29.788Z,27.30
2022-10-22T04:17:56.765Z,28.00
2022-10-22T04:20:23.671Z,30.45
2022-10-22T04:22:50.591Z,27.70
2022-10-22T04:25:17.702Z,29.13
2022-10-22T04:27:44.567Z,26.58
2022-10-22T04:30:12.347Z,30.70
2022-10-22T04:32:39.211Z,27.05
2022-10-22T04:35:06.963Z,29.10
2022-10-22T04:37:34.153Z,31.48
2022-10-22T04:40:01.205Z,30.60
2022-10-22T04:42:28.189Z,28.88
2022-10-22T04:44:55.093Z,27.98
2022-10-22T04:47:22.070Z,33.35
2022-10-22T04:49:48.938Z,29.33
2022-10-22T04:52:15.905Z,31.48
2022-10-22T04:54:42.896Z,31.02
2022-10-22T04:57:09.820Z,27.95
2022-10-22T04:59:37.211Z,31.13
2022-10-22T05:02:04.461Z,28.40
2022-10-22T05:04:32.016Z,31.02
2022-10-22T05:06:58.948Z,33.30
2022-10-22T05:09:26.015Z,30.10
2022-10-22T05:11:53.571Z,33.65
2022-10-22T05:14:24.239Z,29.38
2022-10-22T05:16:52.529Z,28.77
2022-10-22T05:19:29.867Z,29.85
2022-10-22T05:22:00.366Z,31.42
2022-10-22T05:24:29.283Z,30.45
2022-10-22T05:26:58.509Z,26.23
2022-10-22T05:29:26.586Z,26.08
2022-10-22T05:31:54.244Z,29.75
2022-10-22T05:34:21.550Z,29.52
2022-10-22T05:36:48.601Z,28.20
2022-10-22T05:39:16.061Z,28.80
2022-10-22T05:41:43.256Z,28.88
2022-10-22T05:44:12.970Z,35.50
2022-10-22T05:46:40.677Z,31.73
2022-10-22T05:49:08.137Z,30.95
2022-10-22T05:51:37.268Z,35.65
2022-10-22T05:54:07.740Z,33.65
2022-10-22T05:56:35.563Z,28.05
2022-10-22T06:01:35.472Z,35.47
2022-10-22T06:04:07.626Z,28.10
2022-10-22T06:06:53.625Z,28.42
2022-10-22T06:09:26.486Z,30.80
2022-10-22T06:11:54.103Z,27.98
2022-10-22T06:14:21.914Z,28.77
2022-10-22T06:16:49.595Z,32.92
2022-10-22T06:19:20.393Z,31.67
2022-10-22T06:21:48.446Z,34.55
2022-10-22T06:24:16.173Z,30.20
2022-10-22T06:26:43.881Z,29.00
2022-10-22T06:29:11.543Z,32.00
2022-10-22T06:31:38.568Z,29.15
2022-10-22T06:34:12.183Z,27.60
2022-10-22T06:39:16.188Z,28.90
2022-10-22T06:41:43.667Z,29.55
2022-10-22T06:44:16.340Z,33.90
2022-10-22T06:46:44.070Z,29.70
2022-10-22T06:49:15.686Z,31.83
2022-10-22T06:51:42.825Z,33.30
2022-10-22T06:54:10.651Z,30.52
2022-10-22T06:56:38.082Z,32.42
2022-10-22T06:59:05.394Z,25.63
2022-10-22T07:01:36.129Z,28.33
2022-10-22T07:04:05.875Z,33.08
2022-10-22T07:06:33.058Z,26.23
2022-10-22T07:09:04.206Z,26.42
2022-10-22T07:11:40.612Z,30.15
2022-10-22T07:14:07.830Z,30.60
2022-10-22T07:16:34.769Z,30.13
2022-10-22T07:19:03.820Z,30.70
2022-10-22T07:21:32.145Z,31.45
2022-10-22T07:24:00.361Z,30.65
2022-10-22T07:26:30.935Z,28.38
2022-10-22T07:29:00.679Z,32.45
2022-10-22T07:31:28.453Z,24.15
2022-10-22T07:33:55.604Z,30.67
2022-10-22T07:36:22.682Z,26.88
2022-10-22T07:38:56.522Z,32.05
2022-10-22T07:41:23.934Z,26.58
2022-10-22T07:43:51.615Z,28.30
2022-10-22T07:46:20.506Z,29.73
2022-10-22T07:48:47.841Z,33.70
2022-10-22T07:51:15.823Z,27.73
2022-10-22T07:53:43.548Z,26.92
2022-10-22T07:56:10.996Z,24.95
2022-10-22T07:58:38.308Z,31.33
2022-10-22T08:01:05.965Z,27.25
2022-10-22T08:03:33.854Z,35.42
2022-10-22T08:06:01.752Z,31.92
2022-10-22T08:08:30.934Z,29.05
2022-10-22T08:11:01.601Z,29.75
2022-10-22T08:13:30.752Z,27.23
2022-10-22T08:16:00.334Z,23.23
2022-10-22T08:18:28.294Z,28.70
2022-10-22T08:20:55.574Z,25.90
2022-10-22T08:23:26.002Z,26.73
2022-10-22T08:25:54.809Z,30.52
2022-10-22T08:28:23.030Z,27.90
2022-10-22T08:30:50.152Z,30.08
2022-10-22T08:33:17.099Z,28.90
2022-10-22T08:35:51.820Z,26.77
2022-10-22T08:38:19.795Z,30.05
2022-10-22T08:40:54.799Z,26.17
2022-10-22T08:43:50.136Z,25.00
2022-10-22T08:46:53.055Z,24.38
2022-10-22T08:49:25.396Z,25.30
2022-10-22T08:51:52.645Z,24.65
2022-10-22T08:54:42.017Z,26.00
2022-10-22T08:57:09.195Z,27.50
2022-10-22T09:00:05.376Z,28.52
2022-10-22T09:02:59.970Z,26.98
2022-10-22T09:08:24.611Z,28.50
2022-10-22T09:11:01.595Z,28.77
2022-10-22T09:13:29.919Z,32.00
2022-10-22T09:16:01.915Z,32.55
2022-10-22T09:19:10.270Z,32.83
2022-10-22T09:22:10.071Z,30.77
2022-10-22T09:24:43.681Z,28.08
2022-10-22T09:27:29.138Z,26.48
2022-10-22T09:29:56.894Z,30.45
2022-10-22T09:32:24.088Z,32.42
2022-10-22T09:34:57.035Z,32.30
2022-10-22T09:37:30.033Z,31.57
2022-10-22T09:39:59.206Z,29.67
2022-10-22T09:42:26.675Z,34.53
2022-10-22T09:44:59.740Z,30.13
2022-10-22T09:48:02.150Z,27.42
2022-10-22T09:50:39.650Z,26.45
2022-10-22T09:53:43.952Z,25.10
2022-10-22T09:56:36.475Z,30.10
2022-10-22T09:59:04.250Z,29.85
2022-10-22T10:01:38.627Z,24.85
2022-10-22T10:04:10.064Z,27.83
2022-10-22T10:06:41.134Z,29.38
2022-10-22T10:09:25.398Z,30.33
2022-10-22T10:12:06.221Z,29.65
2022-10-22T10:14:38.896Z,29.20
2022-10-22T10:17:28.183Z,34.13
2022-10-22T10:20:10.753Z,27.50
2022-10-22T10:23:20.641Z,28.25
2022-10-22T10:26:07.947Z,26.02
2022-10-22T10:29:13.235Z,28.35
2022-10-22T10:32:10.203Z,27.38
2022-10-22T10:34:53.672Z,27.38
2022-10-22T10:37:38.751Z,28.30
2022-10-22T10:40:13.174Z,32.58
2022-10-22T10:42:58.698Z,29.05
2022-10-22T10:45:36.194Z,28.90
2022-10-22T10:48:33.089Z,30.40
2022-10-22T10:51:50.576Z,35.75
2022-10-22T10:54:28.047Z,35.10
2022-10-22T10:57:02.812Z,36.92
2022-10-22T10:59:47.638Z,40.38
2022-10-22T11:02:34.973Z,38.45
2022-10-22T11:05:28.235Z,42.25
2022-10-22T11:08:03.043Z,39.45
2022-10-22T11:10:42.483Z,36.25
2022-10-22T11:13:33.000Z,41.05
2022-10-22T11:16:14.603Z,40.13
2022-10-22T11:18:45.091Z,40.75
2022-10-22T11:21:30.500Z,37.83
2022-10-22T11:24:12.302Z,38.88
2022-10-22T11:26:49.080Z,38.25
2022-10-22T11:29:27.297Z,41.90
2022-10-22T11:31:57.712Z,35.50
2022-10-22T11:34:40.902Z,38.65
2022-10-22T11:37:11.148Z,40.42
2022-10-22T11:39:45.845Z,37.40
2022-10-22T11:42:21.655Z,43.63
2022-10-22T11:45:07.245Z,38.40
2022-10-22T11:47:53.785Z,34.55
2022-10-22T11:50:25.193Z,28.98
2022-10-22T11:53:02.914Z,27.75
2022-10-22T11:55:48.746Z,28.23
2022-10-22T11:58:35.703Z,30.10
2022-10-22T12:01:02.625Z,33.35
2022-10-22T12:03:35.438Z,29.48
2022-10-22T12:06:12.258Z,27.87
2022-10-22T12:08:46.143Z,28.23
2022-10-22T12:11:20.702Z,28.98
2022-10-22T12:14:26.636Z,28.45
2022-10-22T12:16:58.289Z,29.00
2022-10-22T12:19:36.163Z,26.15
2022-10-22T12:22:27.043Z,28.33
2022-10-22T12:25:00.961Z,26.00
2022-10-22T12:27:39.092Z,28.10
2022-10-22T12:30:29.156Z,29.45
2022-10-22T12:33:01.637Z,25.83
2022-10-22T12:35:43.009Z,33.35
2022-10-22T12:38:17.476Z,26.98
2022-10-22T12:40:47.671Z,25.27
2022-10-22T12:43:20.594Z,29.52
2022-10-22T12:45:49.850Z,27.30
2022-10-22T12:48:41.191Z,29.35
2022-10-22T12:51:11.773Z,30.92
2022-10-22T12:53:55.570Z,25.88
2022-10-22T12:56:27.927Z,27.38
2022-10-22T12:59:26.421Z,25.83
2022-10-22T13:01:54.926Z,25.95
2022-10-22T13:04:37.712Z,26.50
2022-10-22T13:07:25.939Z,29.50
2022-10-22T13:09:57.525Z,25.38
2022-10-22T13:12:28.094Z,30.70
2022-10-22T13:14:55.102Z,26.02
2022-10-22T13:17:41.439Z,28.25
2022-10-22T13:20:23.547Z,24.65
2022-10-22T13:23:03.395Z,23.42
2022-10-22T13:25:38.689Z,26.83
2022-10-22T13:28:21.155Z,27.02
2022-10-22T13:31:02.753Z,25.15
2022-10-22T13:33:38.440Z,25.55
2022-10-22T13:36:06.646Z,27.40
2022-10-22T13:38:33.715Z,28.17
2022-10-22T13:41:03.182Z,28.20
2022-10-22T13:43:30.226Z,29.35
2022-10-22T13:46:01.220Z,27.35
2022-10-22T13:48:30.673Z,26.77
2022-10-22T13:50:57.700Z,28.70
2022-10-22T13:53:28.962Z,29.20
2022-10-22T13:55:56.331Z,25.15
2022-10-22T13:58:25.117Z,30.77
2022-10-22T14:00:57.032Z,27.38
2022-10-22T14:03:32.629Z,24.20
2022-10-22T14:06:01.064Z,27.40
2022-10-22T14:08:28.939Z,25.67
2022-10-22T14:10:56.195Z,27.85
2022-10-22T14:13:23.856Z,23.20
2022-10-22T14:15:52.508Z,22.55
2022-10-22T14:18:28.654Z,28.98
2022-10-22T14:20:58.631Z,29.67
2022-10-22T14:23:30.174Z,28.13
2022-10-22T14:25:59.156Z,27.95
2022-10-22T14:28:26.162Z,25.33
2022-10-22T14:30:54.414Z,26.90
2022-10-22T14:33:32.109Z,30.40
2022-10-22T14:36:00.851Z,28.45
2022-10-22T14:38:28.574Z,25.05
2022-10-22T14:40:56.037Z,30.70
2022-10-22T14:43:28.543Z,28.67
2022-10-22T14:45:56.378Z,28.25
2022-10-22T14:48:24.502Z,30.13
2022-10-22T14:50:52.091Z,26.25
2022-10-22T14:53:19.926Z,32.90
2022-10-22T14:55:49.104Z,30.15
2022-10-22T14:58:16.595Z,31.00
2022-10-22T15:00:44.231Z,27.27
2022-10-22T15:03:11.987Z,27.42
2022-10-22T15:05:44.785Z,28.73
2022-10-22T15:08:14.559Z,30.42
2022-10-22T15:10:41.859Z,28.50
2022-10-22T15:13:09.841Z,30.33
2022-10-22T15:15:41.241Z,27.67
2022-10-22T15:18:08.801Z,29.25
2022-10-22T15:20:36.858Z,32.83
2022-10-22T15:23:04.102Z,26.15
2022-10-22T15:25:31.300Z,28.27
2022-10-22T15:28:01.845Z,31.85
2022-10-22T15:30:34.563Z,34.47
2022-10-22T15:33:02.074Z,30.80
2022-10-22T15:35:29.040Z,25.80
2022-10-22T15:37:56.072Z,28.33
2022-10-22T15:40:25.956Z,31.75
2022-10-22T15:42:53.350Z,26.77
2022-10-22T15:45:22.651Z,25.85
2022-10-22T15:47:50.452Z,36.40
2022-10-22T15:52:45.123Z,31.67
2022-10-22T15:57:41.164Z,35.17
2022-10-22T16:00:10.004Z,31.50
2022-10-22T16:02:39.901Z,32.35
2022-10-22T16:05:09.192Z,34.10
2022-10-22T16:07:36.856Z,31.00
2022-10-22T16:10:04.715Z,29.75
2022-10-22T16:12:32.067Z,35.60
2022-10-22T16:14:59.313Z,35.20
2022-10-22T16:17:26.332Z,28.20
2022-10-22T16:19:53.557Z,30.08
2022-10-22T16:22:20.554Z,30.17
2022-10-22T16:24:47.462Z,33.13
2022-10-22T16:27:14.479Z,30.70
2022-10-22T16:29:42.006Z,29.38
2022-10-22T16:32:08.992Z,31.00
2022-10-22T16:34:35.963Z,29.55
2022-10-22T16:37:03.197Z,33.78
2022-10-22T16:39:30.644Z,32.65
2022-10-22T16:41:57.849Z,28.52
2022-10-22T16:44:25.271Z,33.08
2022-10-22T16:46:52.658Z,35.67
2022-10-22T16:49:19.973Z,31.75
2022-10-22T16:51:47.015Z,35.05
2022-10-22T16:54:15.689Z,35.28
2022-10-22T16:56:42.714Z,36.88
2022-10-22T16:59:09.952Z,32.38
2022-10-22T17:01:40.974Z,38.28
2022-10-22T17:04:09.407Z,36.63
2022-10-22T17:06:36.770Z,38.80
2022-10-22T17:09:04.915Z,37.55
2022-10-22T17:11:36.418Z,40.25
2022-10-22T17:14:05.319Z,38.40
2022-10-22T17:16:32.413Z,42.63
2022-10-22T17:18:59.390Z,32.03
2022-10-22T17:21:26.361Z,41.45
2022-10-22T17:23:58.027Z,46.20
2022-10-22T17:26:26.979Z,41.55
2022-10-22T17:28:54.869Z,38.53
2022-10-22T17:31:25.150Z,40.13
2022-10-22T17:33:54.932Z,38.92
2022-10-22T17:36:24.101Z,37.60
2022-10-22T17:38:57.304Z,41.83
2022-10-22T17:41:32.108Z,42.92
2022-10-22T17:44:02.290Z,41.55
2022-10-22T17:46:31.131Z,43.10
2022-10-22T17:49:02.207Z,41.78
2022-10-22T17:51:31.469Z,37.38
2022-10-22T17:53:58.686Z,37.60
2022-10-22T17:56:29.878Z,40.58
2022-10-22T17:58:59.675Z,34.42
2022-10-22T18:01:31.416Z,38.85
2022-10-22T18:04:06.336Z,32.65
2022-10-22T18:06:34.786Z,39.42
2022-10-22T18:09:05.812Z,37.42
2022-10-22T18:11:34.410Z,42.13
2022-10-22T18:14:01.455Z,40.90
2022-10-22T18:16:28.715Z,37.65
2022-10-22T18:18:57.485Z,40.35
2022-10-22T18:21:27.359Z,35.28
2022-10-22T18:23:55.285Z,32.90
2022-10-22T18:26:25.945Z,34.97
2022-10-22T18:28:54.717Z,36.60
2022-10-22T18:31:27.972Z,31.60
2022-10-22T18:33:55.673Z,36.22
2022-10-22T18:36:26.789Z,33.45
2022-10-22T18:38:57.394Z,39.83
2022-10-22T18:41:25.280Z,38.67
2022-10-22T18:43:54.719Z,38.55
2022-10-22T18:46:24.015Z,30.88
2022-10-22T18:48:56.155Z,35.28
2022-10-22T18:51:26.166Z,37.65
2022-10-22T18:54:05.895Z,37.08
2022-10-22T18:56:40.708Z,38.03
2022-10-22T18:59:20.800Z,36.00
2022-10-22T19:01:48.093Z,32.35
2022-10-22T19:04:15.523Z,36.72
2022-10-22T19:06:45.244Z,34.05
2022-10-22T19:09:15.287Z,35.00
2022-10-22T19:11:45.056Z,32.08
2022-10-22T19:14:14.964Z,33.90
2022-10-22T19:16:42.470Z,33.60
2022-10-22T19:19:09.530Z,34.95
2022-10-22T19:21:38.387Z,30.30
2022-10-22T19:24:06.124Z,29.60
2022-10-22T19:26:33.099Z,33.20
2022-10-22T19:29:00.575Z,34.83
2022-10-22T19:31:32.437Z,31.83
2022-10-22T19:34:01.537Z,30.38
2022-10-22T19:36:30.826Z,31.40
2022-10-22T19:38:59.301Z,33.50
2022-10-22T19:41:29.136Z,36.67
2022-10-22T19:43:58.007Z,31.55
2022-10-22T19:46:29.243Z,29.65
2022-10-22T19:48:57.370Z,29.85
2022-10-22T19:51:29.896Z,27.67
2022-10-22T19:54:18.618Z,29.75
2022-10-22T19:56:46.779Z,25.75
2022-10-22T19:59:15.860Z,24.75
2022-10-22T20:01:43.361Z,30.38
2022-10-22T20:04:16.289Z,23.85
2022-10-22T20:06:48.278Z,28.30
2022-10-22T20:09:16.105Z,21.67
2022-10-22T20:11:44.263Z,24.48
2022-10-22T20:14:12.038Z,21.70
2022-10-22T20:16:39.470Z,19.10
2022-10-22T20:19:08.644Z,22.67
2022-10-22T20:21:35.583Z,25.00
2022-10-22T20:24:02.590Z,19.52
2022-10-22T20:26:31.518Z,18.58
2022-10-22T20:28:59.027Z,18.40
2022-10-22T20:31:29.344Z,17.70
2022-10-22T20:33:59.602Z,18.55
2022-10-22T20:36:28.703Z,17.92
2022-10-22T20:39:02.423Z,16.50
2022-10-22T20:41:29.841Z,18.83
2022-10-22T20:43:57.165Z,18.13
2022-10-22T20:46:30.854Z,18.10
2022-10-22T20:49:24.473Z,14.93
2022-10-22T20:51:51.555Z,17.13
2022-10-22T20:54:20.121Z,24.52
2022-10-22T20:56:47.996Z,15.20
2022-10-22T20:59:15.875Z,17.23
2022-10-22T21:01:48.095Z,16.90
2022-10-22T21:04:17.604Z,16.30
2022-10-22T21:06:45.368Z,10.07
2022-10-22T21:09:14.559Z,11.57
2022-10-22T21:11:44.674Z,12.55
2022-10-22T21:14:14.818Z,11.82
2022-10-22T21:16:50.023Z,10.38
2022-10-22T21:19:19.181Z,11.85
2022-10-22T21:21:46.067Z,12.23
2022-10-22T21:24:13.069Z,8.77
2022-10-22T21:26:42.758Z,10.07
2022-10-22T21:29:12.543Z,8.65
2022-10-22T21:31:40.603Z,8.85
2022-10-22T21:34:07.839Z,11.18
2022-10-22T21:36:35.059Z,10.05
2022-10-22T21:39:02.752Z,9.95
2022-10-22T21:41:29.844Z,12.10
2022-10-22T21:43:56.992Z,10.45
2022-10-22T21:46:27.430Z,11.75
2022-10-22T21:49:03.388Z,12.85
2022-10-22T21:51:33.968Z,15.82
2022-10-22T21:54:01.233Z,14.68
2022-10-22T21:56:34.745Z,13.32
2022-10-22T21:59:04.430Z,13.68
2022-10-22T22:01:31.639Z,10.88
2022-10-22T22:03:58.999Z,10.48
2022-10-22T22:06:30.854Z,17.38
2022-10-22T22:09:00.320Z,11.77
2022-10-22T22:11:29.041Z,10.35
2022-10-22T22:13:58.089Z,10.90
2022-10-22T22:16:32.531Z,9.93
2022-10-22T22:21:41.833Z,12.68
2022-10-22T22:24:11.891Z,9.35
2022-10-22T22:26:39.588Z,10.10
2022-10-22T22:29:06.670Z,5.55
2022-10-22T22:31:37.326Z,6.38
2022-10-22T22:34:08.829Z,5.63
2022-10-22T22:36:39.776Z,7.13
2022-10-22T22:39:11.096Z,5.57
2022-10-22T22:41:38.134Z,4.05
2022-10-22T22:44:05.394Z,4.90
2022-10-22T22:46:32.642Z,5.22
2022-10-22T22:48:59.638Z,4.20
2022-10-22T22:51:26.876Z,4.22
2022-10-22T22:53:53.887Z,6.78
2022-10-22T22:56:28.004Z,5.30
2022-10-22T22:58:55.855Z,5.25
2022-10-22T23:01:38.631Z,4.75
2022-10-22T23:04:25.292Z,3.13
2022-10-22T23:06:52.481Z,5.63
2022-10-22T23:11:53.454Z,6.87
2022-10-22T23:14:20.554Z,5.38
2022-10-22T23:16:51.159Z,3.50
2022-10-22T23:19:21.612Z,4.22
2022-10-22T23:21:54.891Z,3.13
2022-10-22T23:24:25.966Z,2.70
2022-10-22T23:26:54.949Z,6.55
2022-10-22T23:29:26.721Z,4.13
2022-10-22T23:31:55.730Z,4.47
2022-10-22T23:34:25.154Z,4.40
2022-10-22T23:36:53.174Z,3.15
2022-10-22T23:39:26.527Z,4.30
2022-10-22T23:41:54.377Z,5.22
2022-10-22T23:44:22.760Z,4.63
2022-10-22T23:46:50.837Z,7.47
2022-10-22T23:49:18.580Z,6.47
2022-10-22T23:51:45.604Z,6.50
2022-10-22T23:54:16.298Z,8.75
2022-10-22T23:56:43.664Z,9.30
2022-10-22T23:59:11.537Z,7.97
